sensor_id;sensor_type;location;lat;lon;timestamp;temperature;humidity
7738;DHT22;29398;45.328;5.558;2023-03-03T00:00:27;4.60;83.50
7738;DHT22;29398;45.328;5.558;2023-03-03T00:01:28;4.60;83.60
7738;DHT22;29398;45.328;5.558;2023-03-03T00:02:32;4.60;83.70
7738;DHT22;29398;45.328;5.558;2023-03-03T00:03:33;4.60;84.40
7738;DHT22;29398;45.328;5.558;2023-03-03T00:04:36;4.60;84.30
7738;DHT22;29398;45.328;5.558;2023-03-03T00:05:38;4.60;84.40
7738;DHT22;29398;45.328;5.558;2023-03-03T00:06:40;4.50;85.20
7738;DHT22;29398;45.328;5.558;2023-03-03T00:07:42;4.50;85.00
7738;DHT22;29398;45.328;5.558;2023-03-03T00:08:45;4.50;84.90
7738;DHT22;29398;45.328;5.558;2023-03-03T00:09:46;4.40;84.50
7738;DHT22;29398;45.328;5.558;2023-03-03T00:10:48;4.40;85.30
7738;DHT22;29398;45.328;5.558;2023-03-03T00:11:54;4.40;85.50
7738;DHT22;29398;45.328;5.558;2023-03-03T00:12:56;4.40;85.50
7738;DHT22;29398;45.328;5.558;2023-03-03T00:14:01;4.40;85.50
7738;DHT22;29398;45.328;5.558;2023-03-03T00:15:14;4.40;85.20
7738;DHT22;29398;45.328;5.558;2023-03-03T00:16:21;4.40;85.10
7738;DHT22;29398;45.328;5.558;2023-03-03T00:17:24;4.40;85.80
7738;DHT22;29398;45.328;5.558;2023-03-03T00:18:34;4.40;85.20
7738;DHT22;29398;45.328;5.558;2023-03-03T00:19:37;4.40;84.90
7738;DHT22;29398;45.328;5.558;2023-03-03T00:20:45;4.40;84.80
7738;DHT22;29398;45.328;5.558;2023-03-03T00:21:49;4.40;86.00
7738;DHT22;29398;45.328;5.558;2023-03-03T00:22:51;4.30;85.60
7738;DHT22;29398;45.328;5.558;2023-03-03T00:23:53;4.30;85.20
7738;DHT22;29398;45.328;5.558;2023-03-03T00:24:57;4.30;85.10
7738;DHT22;29398;45.328;5.558;2023-03-03T00:25:58;4.30;85.10
7738;DHT22;29398;45.328;5.558;2023-03-03T00:27:06;4.30;86.30
7738;DHT22;29398;45.328;5.558;2023-03-03T00:28:17;4.30;85.40
7738;DHT22;29398;45.328;5.558;2023-03-03T00:29:29;4.30;85.10
7738;DHT22;29398;45.328;5.558;2023-03-03T00:30:30;4.30;85.00
7738;DHT22;29398;45.328;5.558;2023-03-03T00:31:34;4.30;85.10
7738;DHT22;29398;45.328;5.558;2023-03-03T00:32:40;4.30;85.40
7738;DHT22;29398;45.328;5.558;2023-03-03T00:33:46;4.30;85.30
7738;DHT22;29398;45.328;5.558;2023-03-03T00:34:48;4.30;85.30
7738;DHT22;29398;45.328;5.558;2023-03-03T00:35:50;4.30;85.40
7738;DHT22;29398;45.328;5.558;2023-03-03T00:36:53;4.30;85.20
7738;DHT22;29398;45.328;5.558;2023-03-03T00:37:57;4.30;85.30
7738;DHT22;29398;45.328;5.558;2023-03-03T00:39:14;4.30;85.10
7738;DHT22;29398;45.328;5.558;2023-03-03T00:40:21;4.30;85.20
7738;DHT22;29398;45.328;5.558;2023-03-03T00:41:25;4.20;85.40
7738;DHT22;29398;45.328;5.558;2023-03-03T00:42:27;4.20;85.80
7738;DHT22;29398;45.328;5.558;2023-03-03T00:43:34;4.20;85.10
7738;DHT22;29398;45.328;5.558;2023-03-03T00:44:42;4.20;85.30
7738;DHT22;29398;45.328;5.558;2023-03-03T00:45:45;4.30;85.30
7738;DHT22;29398;45.328;5.558;2023-03-03T00:46:47;4.20;85.20
7738;DHT22;29398;45.328;5.558;2023-03-03T00:47:48;4.20;85.20
7738;DHT22;29398;45.328;5.558;2023-03-03T00:48:51;4.20;85.30
7738;DHT22;29398;45.328;5.558;2023-03-03T00:49:53;4.20;85.30
7738;DHT22;29398;45.328;5.558;2023-03-03T00:50:57;4.20;85.30
7738;DHT22;29398;45.328;5.558;2023-03-03T00:51:58;4.20;85.30
7738;DHT22;29398;45.328;5.558;2023-03-03T00:53:04;4.20;85.50
7738;DHT22;29398;45.328;5.558;2023-03-03T00:54:05;4.20;85.40
7738;DHT22;29398;45.328;5.558;2023-03-03T00:55:09;4.20;85.50
7738;DHT22;29398;45.328;5.558;2023-03-03T00:56:10;4.20;85.60
7738;DHT22;29398;45.328;5.558;2023-03-03T00:57:13;4.20;85.50
7738;DHT22;29398;45.328;5.558;2023-03-03T00:58:16;4.20;85.40
7738;DHT22;29398;45.328;5.558;2023-03-03T00:59:22;4.10;85.40
7738;DHT22;29398;45.328;5.558;2023-03-03T01:00:24;4.10;85.40
7738;DHT22;29398;45.328;5.558;2023-03-03T01:01:27;4.10;85.40
7738;DHT22;29398;45.328;5.558;2023-03-03T01:02:28;4.10;85.40
7738;DHT22;29398;45.328;5.558;2023-03-03T01:03:31;4.10;86.10
7738;DHT22;29398;45.328;5.558;2023-03-03T01:04:33;4.10;85.60
7738;DHT22;29398;45.328;5.558;2023-03-03T01:05:34;4.00;85.70
7738;DHT22;29398;45.328;5.558;2023-03-03T01:06:36;4.00;86.00
7738;DHT22;29398;45.328;5.558;2023-03-03T01:07:38;4.00;86.00
7738;DHT22;29398;45.328;5.558;2023-03-03T01:08:39;4.00;86.10
7738;DHT22;29398;45.328;5.558;2023-03-03T01:09:42;4.00;86.10
7738;DHT22;29398;45.328;5.558;2023-03-03T01:10:46;4.00;86.00
7738;DHT22;29398;45.328;5.558;2023-03-03T01:11:51;4.00;86.10
7738;DHT22;29398;45.328;5.558;2023-03-03T01:12:52;4.00;86.10
7738;DHT22;29398;45.328;5.558;2023-03-03T01:13:55;4.00;86.20
7738;DHT22;29398;45.328;5.558;2023-03-03T01:14:56;4.00;86.00
7738;DHT22;29398;45.328;5.558;2023-03-03T01:16:01;3.90;86.00
7738;DHT22;29398;45.328;5.558;2023-03-03T01:17:03;4.00;86.70
7738;DHT22;29398;45.328;5.558;2023-03-03T01:18:06;3.90;86.80
7738;DHT22;29398;45.328;5.558;2023-03-03T01:19:07;3.80;86.80
7738;DHT22;29398;45.328;5.558;2023-03-03T01:20:12;3.80;86.60
7738;DHT22;29398;45.328;5.558;2023-03-03T01:21:14;3.80;86.60
7738;DHT22;29398;45.328;5.558;2023-03-03T01:22:16;3.80;86.60
7738;DHT22;29398;45.328;5.558;2023-03-03T01:23:18;3.80;86.40
7738;DHT22;29398;45.328;5.558;2023-03-03T01:24:20;3.80;86.30
7738;DHT22;29398;45.328;5.558;2023-03-03T01:25:21;3.80;86.20
7738;DHT22;29398;45.328;5.558;2023-03-03T01:26:23;3.80;86.20
7738;DHT22;29398;45.328;5.558;2023-03-03T01:27:24;3.80;86.10
7738;DHT22;29398;45.328;5.558;2023-03-03T01:28:28;3.80;86.20
7738;DHT22;29398;45.328;5.558;2023-03-03T01:29:29;3.80;86.20
7738;DHT22;29398;45.328;5.558;2023-03-03T01:30:31;3.70;86.20
7738;DHT22;29398;45.328;5.558;2023-03-03T01:31:34;3.70;86.40
7738;DHT22;29398;45.328;5.558;2023-03-03T01:32:36;3.70;86.30
7738;DHT22;29398;45.328;5.558;2023-03-03T01:33:37;3.70;86.30
7738;DHT22;29398;45.328;5.558;2023-03-03T01:34:39;3.70;86.30
7738;DHT22;29398;45.328;5.558;2023-03-03T01:35:43;3.70;86.40
7738;DHT22;29398;45.328;5.558;2023-03-03T01:36:45;3.70;86.30
7738;DHT22;29398;45.328;5.558;2023-03-03T01:37:47;3.70;86.50
7738;DHT22;29398;45.328;5.558;2023-03-03T01:38:49;3.70;86.40
7738;DHT22;29398;45.328;5.558;2023-03-03T01:39:50;3.70;86.30
7738;DHT22;29398;45.328;5.558;2023-03-03T01:40:53;3.70;86.60
7738;DHT22;29398;45.328;5.558;2023-03-03T01:41:56;3.60;86.50
7738;DHT22;29398;45.328;5.558;2023-03-03T01:42:58;3.60;86.70
7738;DHT22;29398;45.328;5.558;2023-03-03T01:44:00;3.60;86.70
7738;DHT22;29398;45.328;5.558;2023-03-03T01:45:17;3.60;87.50
7738;DHT22;29398;45.328;5.558;2023-03-03T01:46:31;3.60;86.90
7738;DHT22;29398;45.328;5.558;2023-03-03T01:47:34;3.60;87.10
7738;DHT22;29398;45.328;5.558;2023-03-03T01:48:38;3.60;87.10
7738;DHT22;29398;45.328;5.558;2023-03-03T01:49:45;3.60;87.10
7738;DHT22;29398;45.328;5.558;2023-03-03T01:50:50;3.60;87.10
7738;DHT22;29398;45.328;5.558;2023-03-03T01:51:56;3.60;87.30
7738;DHT22;29398;45.328;5.558;2023-03-03T01:53:00;3.60;87.20
7738;DHT22;29398;45.328;5.558;2023-03-03T01:54:04;3.60;87.30
7738;DHT22;29398;45.328;5.558;2023-03-03T01:55:12;3.60;87.10
7738;DHT22;29398;45.328;5.558;2023-03-03T01:56:13;3.60;87.20
7738;DHT22;29398;45.328;5.558;2023-03-03T01:57:20;3.50;87.20
7738;DHT22;29398;45.328;5.558;2023-03-03T01:58:26;3.50;87.60
7738;DHT22;29398;45.328;5.558;2023-03-03T01:59:34;3.60;87.80
7738;DHT22;29398;45.328;5.558;2023-03-03T02:00:38;3.50;87.60
7738;DHT22;29398;45.328;5.558;2023-03-03T02:01:41;3.50;87.40
7738;DHT22;29398;45.328;5.558;2023-03-03T02:02:44;3.50;87.20
7738;DHT22;29398;45.328;5.558;2023-03-03T02:03:47;3.50;87.30
7738;DHT22;29398;45.328;5.558;2023-03-03T02:04:49;3.50;88.00
7738;DHT22;29398;45.328;5.558;2023-03-03T02:05:53;3.50;88.00
7738;DHT22;29398;45.328;5.558;2023-03-03T02:06:58;3.50;87.70
7738;DHT22;29398;45.328;5.558;2023-03-03T02:08:02;3.50;87.50
7738;DHT22;29398;45.328;5.558;2023-03-03T02:09:08;3.50;87.60
7738;DHT22;29398;45.328;5.558;2023-03-03T02:10:14;3.50;87.60
7738;DHT22;29398;45.328;5.558;2023-03-03T02:11:15;3.50;87.60
7738;DHT22;29398;45.328;5.558;2023-03-03T02:12:19;3.50;87.60
7738;DHT22;29398;45.328;5.558;2023-03-03T02:13:21;3.50;87.70
7738;DHT22;29398;45.328;5.558;2023-03-03T02:14:24;3.50;87.80
7738;DHT22;29398;45.328;5.558;2023-03-03T02:15:27;3.50;87.90
7738;DHT22;29398;45.328;5.558;2023-03-03T02:16:31;3.50;87.90
7738;DHT22;29398;45.328;5.558;2023-03-03T02:17:33;3.60;88.00
7738;DHT22;29398;45.328;5.558;2023-03-03T02:18:37;3.50;88.00
7738;DHT22;29398;45.328;5.558;2023-03-03T02:19:46;3.60;88.10
7738;DHT22;29398;45.328;5.558;2023-03-03T02:20:56;3.60;88.20
7738;DHT22;29398;45.328;5.558;2023-03-03T02:21:58;3.60;88.60
7738;DHT22;29398;45.328;5.558;2023-03-03T02:23:07;3.60;88.60
7738;DHT22;29398;45.328;5.558;2023-03-03T02:24:17;3.60;88.60
7738;DHT22;29398;45.328;5.558;2023-03-03T02:25:28;3.70;88.60
7738;DHT22;29398;45.328;5.558;2023-03-03T02:26:35;3.70;88.50
7738;DHT22;29398;45.328;5.558;2023-03-03T02:27:40;3.70;88.60
7738;DHT22;29398;45.328;5.558;2023-03-03T02:28:43;3.70;88.70
7738;DHT22;29398;45.328;5.558;2023-03-03T02:29:45;3.70;88.60
7738;DHT22;29398;45.328;5.558;2023-03-03T02:30:48;3.70;88.50
7738;DHT22;29398;45.328;5.558;2023-03-03T02:31:49;3.80;88.70
7738;DHT22;29398;45.328;5.558;2023-03-03T02:32:51;3.80;88.70
7738;DHT22;29398;45.328;5.558;2023-03-03T02:33:52;3.80;88.50
7738;DHT22;29398;45.328;5.558;2023-03-03T02:34:55;3.80;88.40
7738;DHT22;29398;45.328;5.558;2023-03-03T02:35:57;3.80;88.50
7738;DHT22;29398;45.328;5.558;2023-03-03T02:37:02;3.80;88.30
7738;DHT22;29398;45.328;5.558;2023-03-03T02:38:11;3.80;88.50
7738;DHT22;29398;45.328;5.558;2023-03-03T02:39:17;3.90;88.50
7738;DHT22;29398;45.328;5.558;2023-03-03T02:40:23;3.90;88.60
7738;DHT22;29398;45.328;5.558;2023-03-03T02:41:29;3.90;88.70
7738;DHT22;29398;45.328;5.558;2023-03-03T02:42:36;4.00;89.00
7738;DHT22;29398;45.328;5.558;2023-03-03T02:43:44;4.00;89.00
7738;DHT22;29398;45.328;5.558;2023-03-03T02:44:48;4.00;89.30
7738;DHT22;29398;45.328;5.558;2023-03-03T02:45:49;4.00;89.10
7738;DHT22;29398;45.328;5.558;2023-03-03T02:46:52;4.00;89.30
7738;DHT22;29398;45.328;5.558;2023-03-03T02:47:54;4.00;89.10
7738;DHT22;29398;45.328;5.558;2023-03-03T02:48:57;4.10;89.30
7738;DHT22;29398;45.328;5.558;2023-03-03T02:49:58;4.10;89.00
7738;DHT22;29398;45.328;5.558;2023-03-03T02:51:00;4.10;88.90
7738;DHT22;29398;45.328;5.558;2023-03-03T02:52:03;4.10;88.70
7738;DHT22;29398;45.328;5.558;2023-03-03T02:53:07;4.20;88.80
7738;DHT22;29398;45.328;5.558;2023-03-03T02:54:09;4.20;88.80
7738;DHT22;29398;45.328;5.558;2023-03-03T02:55:12;4.20;88.80
7738;DHT22;29398;45.328;5.558;2023-03-03T02:56:13;4.20;88.90
7738;DHT22;29398;45.328;5.558;2023-03-03T02:57:15;4.20;88.80
7738;DHT22;29398;45.328;5.558;2023-03-03T02:58:17;4.30;88.70
7738;DHT22;29398;45.328;5.558;2023-03-03T02:59:19;4.30;88.80
7738;DHT22;29398;45.328;5.558;2023-03-03T03:00:23;4.30;88.90
7738;DHT22;29398;45.328;5.558;2023-03-03T03:01:25;4.30;89.00
7738;DHT22;29398;45.328;5.558;2023-03-03T03:02:28;4.30;89.30
7738;DHT22;29398;45.328;5.558;2023-03-03T03:03:32;4.30;89.20
7738;DHT22;29398;45.328;5.558;2023-03-03T03:04:36;4.40;89.30
7738;DHT22;29398;45.328;5.558;2023-03-03T03:05:39;4.40;89.30
7738;DHT22;29398;45.328;5.558;2023-03-03T03:06:40;4.40;89.30
7738;DHT22;29398;45.328;5.558;2023-03-03T03:07:42;4.40;89.30
7738;DHT22;29398;45.328;5.558;2023-03-03T03:08:44;4.40;89.20
7738;DHT22;29398;45.328;5.558;2023-03-03T03:09:46;4.40;89.20
7738;DHT22;29398;45.328;5.558;2023-03-03T03:10:49;4.50;89.30
7738;DHT22;29398;45.328;5.558;2023-03-03T03:11:51;4.50;89.40
7738;DHT22;29398;45.328;5.558;2023-03-03T03:12:55;4.50;89.50
7738;DHT22;29398;45.328;5.558;2023-03-03T03:13:58;4.50;89.60
7738;DHT22;29398;45.328;5.558;2023-03-03T03:15:00;4.50;89.20
7738;DHT22;29398;45.328;5.558;2023-03-03T03:16:04;4.50;89.60
7738;DHT22;29398;45.328;5.558;2023-03-03T03:17:05;4.50;89.70
7738;DHT22;29398;45.328;5.558;2023-03-03T03:18:07;4.50;89.60
7738;DHT22;29398;45.328;5.558;2023-03-03T03:19:08;4.50;89.60
7738;DHT22;29398;45.328;5.558;2023-03-03T03:20:12;4.50;89.30
7738;DHT22;29398;45.328;5.558;2023-03-03T03:21:13;4.50;89.30
7738;DHT22;29398;45.328;5.558;2023-03-03T03:23:19;4.50;88.80
7738;DHT22;29398;45.328;5.558;2023-03-03T03:24:22;4.60;89.40
7738;DHT22;29398;45.328;5.558;2023-03-03T03:25:29;4.60;89.30
7738;DHT22;29398;45.328;5.558;2023-03-03T03:26:32;4.60;89.70
7738;DHT22;29398;45.328;5.558;2023-03-03T03:27:34;4.60;89.40
7738;DHT22;29398;45.328;5.558;2023-03-03T03:28:37;4.70;89.30
7738;DHT22;29398;45.328;5.558;2023-03-03T03:29:40;4.60;89.50
7738;DHT22;29398;45.328;5.558;2023-03-03T03:30:43;4.70;89.40
7738;DHT22;29398;45.328;5.558;2023-03-03T03:31:45;4.70;89.60
7738;DHT22;29398;45.328;5.558;2023-03-03T03:32:47;4.70;89.50
7738;DHT22;29398;45.328;5.558;2023-03-03T03:33:49;4.70;89.20
7738;DHT22;29398;45.328;5.558;2023-03-03T03:34:52;4.70;89.10
7738;DHT22;29398;45.328;5.558;2023-03-03T03:35:54;4.70;89.40
7738;DHT22;29398;45.328;5.558;2023-03-03T03:36:57;4.70;89.40
7738;DHT22;29398;45.328;5.558;2023-03-03T03:38:01;4.70;89.40
7738;DHT22;29398;45.328;5.558;2023-03-03T03:39:04;4.80;89.60
7738;DHT22;29398;45.328;5.558;2023-03-03T03:40:09;4.80;89.50
7738;DHT22;29398;45.328;5.558;2023-03-03T03:41:12;4.80;89.30
7738;DHT22;29398;45.328;5.558;2023-03-03T03:42:13;4.80;89.20
7738;DHT22;29398;45.328;5.558;2023-03-03T03:43:15;4.80;89.10
7738;DHT22;29398;45.328;5.558;2023-03-03T03:44:17;4.80;89.20
7738;DHT22;29398;45.328;5.558;2023-03-03T03:45:21;4.80;89.40
7738;DHT22;29398;45.328;5.558;2023-03-03T03:46:22;4.80;89.50
7738;DHT22;29398;45.328;5.558;2023-03-03T03:47:24;4.80;89.60
7738;DHT22;29398;45.328;5.558;2023-03-03T03:48:26;4.90;89.60
7738;DHT22;29398;45.328;5.558;2023-03-03T03:49:28;4.90;89.50
7738;DHT22;29398;45.328;5.558;2023-03-03T03:50:31;4.90;89.50
7738;DHT22;29398;45.328;5.558;2023-03-03T03:51:33;4.90;89.10
7738;DHT22;29398;45.328;5.558;2023-03-03T03:52:38;4.90;89.20
7738;DHT22;29398;45.328;5.558;2023-03-03T03:53:40;4.90;89.30
7738;DHT22;29398;45.328;5.558;2023-03-03T03:54:41;4.90;89.10
7738;DHT22;29398;45.328;5.558;2023-03-03T03:55:44;4.90;89.10
7738;DHT22;29398;45.328;5.558;2023-03-03T03:56:45;4.80;88.90
7738;DHT22;29398;45.328;5.558;2023-03-03T03:57:47;4.90;88.90
7738;DHT22;29398;45.328;5.558;2023-03-03T03:58:49;4.90;88.80
7738;DHT22;29398;45.328;5.558;2023-03-03T03:59:52;4.90;88.80
7738;DHT22;29398;45.328;5.558;2023-03-03T04:00:54;4.90;89.00
7738;DHT22;29398;45.328;5.558;2023-03-03T04:01:56;4.90;89.10
7738;DHT22;29398;45.328;5.558;2023-03-03T04:02:59;4.90;88.90
7738;DHT22;29398;45.328;5.558;2023-03-03T04:04:02;4.90;88.80
7738;DHT22;29398;45.328;5.558;2023-03-03T04:05:04;4.90;88.70
7738;DHT22;29398;45.328;5.558;2023-03-03T04:06:07;5.00;88.70
7738;DHT22;29398;45.328;5.558;2023-03-03T04:07:08;4.90;89.00
7738;DHT22;29398;45.328;5.558;2023-03-03T04:08:11;5.00;89.30
7738;DHT22;29398;45.328;5.558;2023-03-03T04:09:13;5.00;89.40
7738;DHT22;29398;45.328;5.558;2023-03-03T04:10:16;5.00;89.40
7738;DHT22;29398;45.328;5.558;2023-03-03T04:11:18;5.00;89.50
7738;DHT22;29398;45.328;5.558;2023-03-03T04:12:21;5.00;89.50
7738;DHT22;29398;45.328;5.558;2023-03-03T04:13:22;5.00;89.50
7738;DHT22;29398;45.328;5.558;2023-03-03T04:14:24;5.00;89.60
7738;DHT22;29398;45.328;5.558;2023-03-03T04:15:25;5.00;89.40
7738;DHT22;29398;45.328;5.558;2023-03-03T04:16:30;5.00;89.30
7738;DHT22;29398;45.328;5.558;2023-03-03T04:17:31;5.00;89.30
7738;DHT22;29398;45.328;5.558;2023-03-03T04:18:33;5.00;89.40
7738;DHT22;29398;45.328;5.558;2023-03-03T04:19:35;5.00;89.70
7738;DHT22;29398;45.328;5.558;2023-03-03T04:20:39;5.00;89.70
7738;DHT22;29398;45.328;5.558;2023-03-03T04:21:41;5.10;89.70
7738;DHT22;29398;45.328;5.558;2023-03-03T04:22:44;5.10;89.90
7738;DHT22;29398;45.328;5.558;2023-03-03T04:23:45;5.10;89.90
7738;DHT22;29398;45.328;5.558;2023-03-03T04:24:47;5.00;89.70
7738;DHT22;29398;45.328;5.558;2023-03-03T04:25:50;5.00;89.70
7738;DHT22;29398;45.328;5.558;2023-03-03T04:26:53;5.10;89.70
7738;DHT22;29398;45.328;5.558;2023-03-03T04:27:55;5.10;89.80
7738;DHT22;29398;45.328;5.558;2023-03-03T04:28:57;5.10;89.70
7738;DHT22;29398;45.328;5.558;2023-03-03T04:29:59;5.10;89.40
7738;DHT22;29398;45.328;5.558;2023-03-03T04:31:01;5.10;89.60
7738;DHT22;29398;45.328;5.558;2023-03-03T04:32:06;5.10;89.60
7738;DHT22;29398;45.328;5.558;2023-03-03T04:33:09;5.10;89.60
7738;DHT22;29398;45.328;5.558;2023-03-03T04:34:12;5.20;89.80
7738;DHT22;29398;45.328;5.558;2023-03-03T04:35:15;5.10;89.60
7738;DHT22;29398;45.328;5.558;2023-03-03T04:36:18;5.20;89.60
7738;DHT22;29398;45.328;5.558;2023-03-03T04:37:20;5.20;89.70
7738;DHT22;29398;45.328;5.558;2023-03-03T04:38:22;5.20;89.90
7738;DHT22;29398;45.328;5.558;2023-03-03T04:39:25;5.20;89.50
7738;DHT22;29398;45.328;5.558;2023-03-03T04:40:27;5.20;89.90
7738;DHT22;29398;45.328;5.558;2023-03-03T04:41:29;5.20;90.00
7738;DHT22;29398;45.328;5.558;2023-03-03T04:42:30;5.20;90.00
7738;DHT22;29398;45.328;5.558;2023-03-03T04:43:32;5.20;89.90
7738;DHT22;29398;45.328;5.558;2023-03-03T04:44:34;5.20;89.90
7738;DHT22;29398;45.328;5.558;2023-03-03T04:45:37;5.20;89.90
7738;DHT22;29398;45.328;5.558;2023-03-03T04:46:38;5.20;89.90
7738;DHT22;29398;45.328;5.558;2023-03-03T04:47:42;5.80;90.10
7738;DHT22;29398;45.328;5.558;2023-03-03T04:48:43;5.20;89.90
7738;DHT22;29398;45.328;5.558;2023-03-03T04:49:45;5.20;90.10
7738;DHT22;29398;45.328;5.558;2023-03-03T04:50:47;5.20;90.10
7738;DHT22;29398;45.328;5.558;2023-03-03T04:51:49;5.20;90.00
7738;DHT22;29398;45.328;5.558;2023-03-03T04:52:50;5.20;90.10
7738;DHT22;29398;45.328;5.558;2023-03-03T04:53:52;5.20;90.10
7738;DHT22;29398;45.328;5.558;2023-03-03T04:54:53;5.20;90.10
7738;DHT22;29398;45.328;5.558;2023-03-03T04:55:56;5.20;90.00
7738;DHT22;29398;45.328;5.558;2023-03-03T04:56:57;5.20;90.10
7738;DHT22;29398;45.328;5.558;2023-03-03T04:57:59;5.20;90.00
7738;DHT22;29398;45.328;5.558;2023-03-03T04:59:00;5.20;90.10
7738;DHT22;29398;45.328;5.558;2023-03-03T05:00:03;5.30;90.10
7738;DHT22;29398;45.328;5.558;2023-03-03T05:01:06;5.20;90.10
7738;DHT22;29398;45.328;5.558;2023-03-03T05:02:08;5.30;90.10
7738;DHT22;29398;45.328;5.558;2023-03-03T05:03:11;5.30;90.10
7738;DHT22;29398;45.328;5.558;2023-03-03T05:04:15;5.20;90.00
7738;DHT22;29398;45.328;5.558;2023-03-03T05:05:17;5.20;90.10
7738;DHT22;29398;45.328;5.558;2023-03-03T05:06:19;5.20;90.10
7738;DHT22;29398;45.328;5.558;2023-03-03T05:07:21;5.20;90.10
7738;DHT22;29398;45.328;5.558;2023-03-03T05:08:23;5.20;90.30
7738;DHT22;29398;45.328;5.558;2023-03-03T05:09:25;5.10;90.30
7738;DHT22;29398;45.328;5.558;2023-03-03T05:10:26;5.10;90.40
7738;DHT22;29398;45.328;5.558;2023-03-03T05:11:28;5.10;90.50
7738;DHT22;29398;45.328;5.558;2023-03-03T05:12:30;5.00;90.50
7738;DHT22;29398;45.328;5.558;2023-03-03T05:13:32;5.10;90.50
7738;DHT22;29398;45.328;5.558;2023-03-03T05:14:33;5.10;90.60
7738;DHT22;29398;45.328;5.558;2023-03-03T05:15:35;5.10;90.60
7738;DHT22;29398;45.328;5.558;2023-03-03T05:16:36;5.10;90.50
7738;DHT22;29398;45.328;5.558;2023-03-03T05:17:38;5.10;90.50
7738;DHT22;29398;45.328;5.558;2023-03-03T05:18:41;5.10;90.50
7738;DHT22;29398;45.328;5.558;2023-03-03T05:19:43;5.10;90.50
7738;DHT22;29398;45.328;5.558;2023-03-03T05:20:44;5.20;90.50
7738;DHT22;29398;45.328;5.558;2023-03-03T05:21:46;5.10;90.50
7738;DHT22;29398;45.328;5.558;2023-03-03T05:22:47;5.20;90.50
7738;DHT22;29398;45.328;5.558;2023-03-03T05:23:49;5.20;90.50
7738;DHT22;29398;45.328;5.558;2023-03-03T05:24:51;5.20;90.40
7738;DHT22;29398;45.328;5.558;2023-03-03T05:25:53;5.10;90.30
7738;DHT22;29398;45.328;5.558;2023-03-03T05:26:54;5.20;90.50
7738;DHT22;29398;45.328;5.558;2023-03-03T05:27:56;5.20;90.50
7738;DHT22;29398;45.328;5.558;2023-03-03T05:28:57;5.20;90.50
7738;DHT22;29398;45.328;5.558;2023-03-03T05:29:59;5.20;90.50
7738;DHT22;29398;45.328;5.558;2023-03-03T05:31:01;5.20;90.40
7738;DHT22;29398;45.328;5.558;2023-03-03T05:32:03;5.20;90.40
7738;DHT22;29398;45.328;5.558;2023-03-03T05:33:04;5.20;90.40
7738;DHT22;29398;45.328;5.558;2023-03-03T05:34:08;5.20;90.60
7738;DHT22;29398;45.328;5.558;2023-03-03T05:35:09;5.20;90.40
7738;DHT22;29398;45.328;5.558;2023-03-03T05:36:12;5.20;90.40
7738;DHT22;29398;45.328;5.558;2023-03-03T05:37:13;5.20;90.40
7738;DHT22;29398;45.328;5.558;2023-03-03T05:38:16;5.30;90.40
7738;DHT22;29398;45.328;5.558;2023-03-03T05:39:17;5.30;90.40
7738;DHT22;29398;45.328;5.558;2023-03-03T05:40:19;5.30;90.40
7738;DHT22;29398;45.328;5.558;2023-03-03T05:41:20;5.20;90.40
7738;DHT22;29398;45.328;5.558;2023-03-03T05:42:22;5.20;90.50
7738;DHT22;29398;45.328;5.558;2023-03-03T05:43:24;5.20;90.50
7738;DHT22;29398;45.328;5.558;2023-03-03T05:44:26;5.30;90.80
7738;DHT22;29398;45.328;5.558;2023-03-03T05:45:27;5.20;90.50
7738;DHT22;29398;45.328;5.558;2023-03-03T05:46:29;5.20;90.50
7738;DHT22;29398;45.328;5.558;2023-03-03T05:47:30;5.20;90.50
7738;DHT22;29398;45.328;5.558;2023-03-03T05:48:33;5.20;90.60
7738;DHT22;29398;45.328;5.558;2023-03-03T05:49:35;5.20;90.50
7738;DHT22;29398;45.328;5.558;2023-03-03T05:50:38;5.30;90.50
7738;DHT22;29398;45.328;5.558;2023-03-03T05:51:39;5.20;90.60
7738;DHT22;29398;45.328;5.558;2023-03-03T05:52:42;5.30;90.70
7738;DHT22;29398;45.328;5.558;2023-03-03T05:53:43;5.30;90.60
7738;DHT22;29398;45.328;5.558;2023-03-03T05:54:45;5.30;90.40
7738;DHT22;29398;45.328;5.558;2023-03-03T05:55:46;5.30;90.60
7738;DHT22;29398;45.328;5.558;2023-03-03T05:56:49;5.30;90.50
7738;DHT22;29398;45.328;5.558;2023-03-03T05:57:50;5.30;90.50
7738;DHT22;29398;45.328;5.558;2023-03-03T05:58:52;5.30;90.40
7738;DHT22;29398;45.328;5.558;2023-03-03T05:59:53;5.30;90.50
7738;DHT22;29398;45.328;5.558;2023-03-03T06:00:55;4.70;90.30
7738;DHT22;29398;45.328;5.558;2023-03-03T06:01:57;5.30;90.50
7738;DHT22;29398;45.328;5.558;2023-03-03T06:02:59;5.30;90.40
7738;DHT22;29398;45.328;5.558;2023-03-03T06:04:00;5.30;90.50
7738;DHT22;29398;45.328;5.558;2023-03-03T06:05:04;5.30;90.40
7738;DHT22;29398;45.328;5.558;2023-03-03T06:06:06;5.30;90.40
7738;DHT22;29398;45.328;5.558;2023-03-03T06:07:08;5.30;90.40
7738;DHT22;29398;45.328;5.558;2023-03-03T06:08:10;5.30;90.40
7738;DHT22;29398;45.328;5.558;2023-03-03T06:09:12;5.30;90.40
7738;DHT22;29398;45.328;5.558;2023-03-03T06:10:13;5.30;90.40
7738;DHT22;29398;45.328;5.558;2023-03-03T06:11:18;5.40;90.40
7738;DHT22;29398;45.328;5.558;2023-03-03T06:12:19;5.40;90.50
7738;DHT22;29398;45.328;5.558;2023-03-03T06:13:22;5.40;90.60
7738;DHT22;29398;45.328;5.558;2023-03-03T06:14:23;5.40;90.50
7738;DHT22;29398;45.328;5.558;2023-03-03T06:15:25;5.40;90.50
7738;DHT22;29398;45.328;5.558;2023-03-03T06:16:26;5.40;90.50
7738;DHT22;29398;45.328;5.558;2023-03-03T06:17:29;5.40;90.40
7738;DHT22;29398;45.328;5.558;2023-03-03T06:18:30;5.40;90.60
7738;DHT22;29398;45.328;5.558;2023-03-03T06:19:32;5.40;90.60
7738;DHT22;29398;45.328;5.558;2023-03-03T06:20:35;5.40;90.60
7738;DHT22;29398;45.328;5.558;2023-03-03T06:21:38;5.40;90.50
7738;DHT22;29398;45.328;5.558;2023-03-03T06:22:40;5.40;90.50
7738;DHT22;29398;45.328;5.558;2023-03-03T06:23:41;5.40;90.40
7738;DHT22;29398;45.328;5.558;2023-03-03T06:24:43;5.40;90.30
7738;DHT22;29398;45.328;5.558;2023-03-03T06:25:45;5.40;90.20
7738;DHT22;29398;45.328;5.558;2023-03-03T06:26:47;5.40;90.30
7738;DHT22;29398;45.328;5.558;2023-03-03T06:27:48;5.40;90.40
7738;DHT22;29398;45.328;5.558;2023-03-03T06:28:50;5.40;90.40
7738;DHT22;29398;45.328;5.558;2023-03-03T06:29:53;5.40;90.40
7738;DHT22;29398;45.328;5.558;2023-03-03T06:30:56;5.40;90.40
7738;DHT22;29398;45.328;5.558;2023-03-03T06:31:57;5.40;90.40
7738;DHT22;29398;45.328;5.558;2023-03-03T06:32:59;5.40;90.40
7738;DHT22;29398;45.328;5.558;2023-03-03T06:34:02;5.40;90.40
7738;DHT22;29398;45.328;5.558;2023-03-03T06:35:05;5.40;90.40
7738;DHT22;29398;45.328;5.558;2023-03-03T06:36:07;5.40;90.50
7738;DHT22;29398;45.328;5.558;2023-03-03T06:37:10;5.40;90.40
7738;DHT22;29398;45.328;5.558;2023-03-03T06:38:12;5.50;90.50
7738;DHT22;29398;45.328;5.558;2023-03-03T06:39:14;5.50;90.50
7738;DHT22;29398;45.328;5.558;2023-03-03T06:40:15;5.50;90.50
7738;DHT22;29398;45.328;5.558;2023-03-03T06:41:17;5.50;90.50
7738;DHT22;29398;45.328;5.558;2023-03-03T06:42:18;5.40;90.50
7738;DHT22;29398;45.328;5.558;2023-03-03T06:43:21;5.50;90.50
7738;DHT22;29398;45.328;5.558;2023-03-03T06:44:22;5.50;90.50
7738;DHT22;29398;45.328;5.558;2023-03-03T06:45:24;5.50;90.50
7738;DHT22;29398;45.328;5.558;2023-03-03T06:46:26;5.50;90.50
7738;DHT22;29398;45.328;5.558;2023-03-03T06:47:29;5.50;90.40
7738;DHT22;29398;45.328;5.558;2023-03-03T06:48:32;5.50;90.40
7738;DHT22;29398;45.328;5.558;2023-03-03T06:49:34;5.50;90.50
7738;DHT22;29398;45.328;5.558;2023-03-03T06:50:35;5.50;90.50
7738;DHT22;29398;45.328;5.558;2023-03-03T06:51:40;5.50;90.50